Terminal Aerodrome Forecast
Issued by NWS

Home | Current Version | Previous Version | Text Only | Print | Product List | Glossary On
Versions: 1 2 3 4 5 6 7 8 9 10 11 12 13 14 15 16 17 18
000
FTUS42 TJSJ 190500 AAA
TAFJSJ
TAF AMD
TJSJ 190551Z 1906/2006 00000KT P6SM VCSH SCT025 SCT050
      TEMPO 1906/1909 VRB12KT 5SM SHRA SCT022 BKN035
     FM191400 08015KT P6SM SCT025 SCT060
     FM192300 08012KT P6SM FEW025 SCT040 BKN070=

USA.gov is the U.S. government's official web portal to all federal, state and local government web resources and services.